createdAt,value
2022-10-01T00:02:08.830Z,5.57
2022-10-01T00:04:37.823Z,6.68
2022-10-01T00:07:09.799Z,11.55
2022-10-01T00:09:38.694Z,5.90
2022-10-01T00:12:08.416Z,5.82
2022-10-01T00:14:39.412Z,7.15
2022-10-01T00:17:07.676Z,6.72
2022-10-01T00:19:35.979Z,7.03
2022-10-01T00:22:04.325Z,7.65
2022-10-01T00:24:32.666Z,6.75
2022-10-01T00:27:00.994Z,7.25
2022-10-01T00:29:31.142Z,8.18
2022-10-01T00:31:59.536Z,6.95
2022-10-01T00:34:28.362Z,8.57
2022-10-01T00:36:56.918Z,11.27
2022-10-01T00:39:25.284Z,10.02
2022-10-01T00:41:53.693Z,10.55
2022-10-01T00:44:33.729Z,9.63
2022-10-01T00:47:07.787Z,9.02
2022-10-01T00:49:39.826Z,8.10
2022-10-01T00:52:13.911Z,9.55
2022-10-01T00:54:50.949Z,8.90
2022-10-01T00:57:24.234Z,9.57
2022-10-01T00:59:56.904Z,10.35
2022-10-01T01:02:25.440Z,9.38
2022-10-01T01:04:54.078Z,11.70
2022-10-01T01:07:27.185Z,9.50
2022-10-01T01:09:56.225Z,9.60
2022-10-01T01:12:50.867Z,10.52
2022-10-01T01:15:28.180Z,11.43
2022-10-01T01:18:23.016Z,11.25
2022-10-01T01:21:13.571Z,13.48
2022-10-01T01:24:07.962Z,15.18
2022-10-01T01:27:08.571Z,12.93
2022-10-01T01:29:39.981Z,13.23
2022-10-01T01:32:15.185Z,14.05
2022-10-01T01:34:49.033Z,14.15
2022-10-01T01:37:22.119Z,13.88
2022-10-01T01:39:53.888Z,18.33
2022-10-01T01:42:29.723Z,21.10
2022-10-01T01:45:01.298Z,15.30
2022-10-01T01:47:32.981Z,18.00
2022-10-01T01:50:06.144Z,14.73
2022-10-01T01:52:35.229Z,14.23
2022-10-01T01:55:07.535Z,15.32
2022-10-01T01:57:44.310Z,16.40
2022-10-01T02:00:13.494Z,19.40
2022-10-01T02:02:49.115Z,20.73
2022-10-01T02:05:35.589Z,14.98
2022-10-01T02:08:55.209Z,17.42
2022-10-01T02:11:29.850Z,11.77
2022-10-01T02:14:29.240Z,14.35
2022-10-01T02:17:11.198Z,10.68
2022-10-01T02:19:49.571Z,12.85
2022-10-01T02:22:27.930Z,17.98
2022-10-01T02:25:00.038Z,10.15
2022-10-01T02:27:56.117Z,14.10
2022-10-01T02:30:24.854Z,10.23
2022-10-01T02:32:56.601Z,10.80
2022-10-01T02:35:29.096Z,13.18
2022-10-01T02:37:59.929Z,11.82
2022-10-01T02:43:08.805Z,14.95
2022-10-01T02:45:40.399Z,17.30
2022-10-01T02:48:11.919Z,18.98
2022-10-01T02:51:02.116Z,17.40
2022-10-01T02:53:47.895Z,15.52
2022-10-01T02:56:36.761Z,13.68
2022-10-01T02:59:08.776Z,13.13
2022-10-01T03:01:37.764Z,13.55
2022-10-01T03:04:06.162Z,11.00
2022-10-01T03:06:35.957Z,9.98
2022-10-01T03:09:04.296Z,11.97
2022-10-01T03:11:35.947Z,13.07
2022-10-01T03:14:04.545Z,12.00
2022-10-01T03:16:33.338Z,11.15
2022-10-01T03:19:01.627Z,13.52
2022-10-01T03:21:30.160Z,13.55
2022-10-01T03:23:58.819Z,12.43
2022-10-01T03:26:27.489Z,12.07
2022-10-01T03:28:57.203Z,14.07
2022-10-01T03:31:26.361Z,14.55
2022-10-01T03:33:59.280Z,16.33
2022-10-01T03:36:28.259Z,11.15
2022-10-01T03:38:56.757Z,11.43
2022-10-01T03:41:25.597Z,9.65
2022-10-01T03:43:58.320Z,8.25
2022-10-01T03:46:31.724Z,9.25
2022-10-01T03:49:00.891Z,7.45
2022-10-01T03:51:31.342Z,9.13
2022-10-01T03:53:59.861Z,8.52
2022-10-01T03:56:28.434Z,7.65
2022-10-01T03:58:57.124Z,7.43
2022-10-01T04:01:26.265Z,8.18
2022-10-01T04:03:54.762Z,7.60
2022-10-01T04:06:23.121Z,6.18
2022-10-01T04:08:52.983Z,6.07
2022-10-01T04:11:21.768Z,4.72
2022-10-01T04:13:50.741Z,4.82
2022-10-01T04:16:19.463Z,4.50
2022-10-01T04:18:47.746Z,5.18
2022-10-01T04:21:16.425Z,5.85
2022-10-01T04:23:44.852Z,4.60
2022-10-01T04:26:13.244Z,5.82
2022-10-01T04:28:41.585Z,3.95
2022-10-01T04:31:25.248Z,4.00
2022-10-01T04:33:56.646Z,3.50
2022-10-01T04:36:25.842Z,3.25
2022-10-01T04:39:00.901Z,2.90
2022-10-01T04:41:32.200Z,6.75
2022-10-01T04:44:04.178Z,3.13
2022-10-01T04:46:32.605Z,3.13
2022-10-01T04:49:01.327Z,2.83
2022-10-01T04:51:29.807Z,3.35
2022-10-01T04:53:58.130Z,2.92
2022-10-01T04:56:26.362Z,2.60
2022-10-01T04:58:54.822Z,2.67
2022-10-01T05:01:23.184Z,2.80
2022-10-01T05:03:51.876Z,2.80
2022-10-01T05:06:20.270Z,2.45
2022-10-01T05:08:49.628Z,2.40
2022-10-01T05:11:18.729Z,3.40
2022-10-01T05:13:47.332Z,2.92
2022-10-01T05:16:15.685Z,2.78
2022-10-01T05:18:46.116Z,3.20
2022-10-01T05:21:15.763Z,3.08
2022-10-01T05:23:44.465Z,2.83
2022-10-01T05:26:13.092Z,2.90
2022-10-01T05:28:44.793Z,3.25
2022-10-01T05:31:13.760Z,3.30
2022-10-01T05:33:45.215Z,3.75
2022-10-01T05:36:13.532Z,3.47
2022-10-01T05:38:42.337Z,3.40
2022-10-01T05:41:11.031Z,3.80
2022-10-01T05:43:39.411Z,3.50
2022-10-01T05:46:07.750Z,3.30
2022-10-01T05:48:37.836Z,3.20
2022-10-01T05:51:08.070Z,4.15
2022-10-01T05:53:40.221Z,3.17
2022-10-01T05:56:09.119Z,5.13
2022-10-01T05:58:37.536Z,3.90
2022-10-01T06:01:06.017Z,4.25
2022-10-01T06:03:34.748Z,3.58
2022-10-01T06:06:05.728Z,4.60
2022-10-01T06:08:38.198Z,4.28
2022-10-01T06:11:07.483Z,4.60
2022-10-01T06:13:35.912Z,4.30
2022-10-01T06:16:04.343Z,5.10
2022-10-01T06:18:32.719Z,4.85
2022-10-01T06:21:02.205Z,4.38
2022-10-01T06:23:33.691Z,5.38
2022-10-01T06:26:05.610Z,4.78
2022-10-01T06:28:34.218Z,5.03
2022-10-01T06:31:04.593Z,5.38
2022-10-01T06:33:33.292Z,8.32
2022-10-01T06:36:03.796Z,5.53
2022-10-01T06:38:32.278Z,5.88
2022-10-01T06:41:02.190Z,8.32
2022-10-01T06:43:32.840Z,6.15
2022-10-01T06:46:03.134Z,5.13
2022-10-01T06:48:32.797Z,6.30
2022-10-01T06:51:01.062Z,5.32
2022-10-01T06:53:29.904Z,5.10
2022-10-01T06:56:05.061Z,4.90
2022-10-01T06:58:33.543Z,4.97
2022-10-01T07:01:04.805Z,6.45
2022-10-01T07:03:33.348Z,6.75
2022-10-01T07:06:04.646Z,6.78
2022-10-01T07:08:33.396Z,5.25
2022-10-01T07:11:02.875Z,10.10
2022-10-01T07:13:31.369Z,7.60
2022-10-01T07:15:59.853Z,9.70
2022-10-01T07:18:28.396Z,5.88
2022-10-01T07:20:59.735Z,8.82
2022-10-01T07:23:33.881Z,7.82
2022-10-01T07:26:04.931Z,4.88
2022-10-01T07:28:33.734Z,6.43
2022-10-01T07:31:11.335Z,8.68
2022-10-01T07:33:40.686Z,4.78
2022-10-01T07:36:11.615Z,6.15
2022-10-01T07:38:39.975Z,9.68
2022-10-01T07:41:09.540Z,5.53
2022-10-01T07:43:39.565Z,5.95
2022-10-01T07:46:08.159Z,3.95
2022-10-01T07:48:37.317Z,5.57
2022-10-01T07:51:06.108Z,8.15
2022-10-01T07:53:34.520Z,8.55
2022-10-01T07:56:05.530Z,7.05
2022-10-01T07:58:34.353Z,10.93
2022-10-01T08:01:04.513Z,10.23
2022-10-01T08:03:33.163Z,4.90
2022-10-01T08:06:06.916Z,7.60
2022-10-01T08:08:35.204Z,5.63
2022-10-01T08:11:04.108Z,9.32
2022-10-01T08:13:32.562Z,8.27
2022-10-01T08:16:06.394Z,10.70
2022-10-01T08:18:35.246Z,10.32
2022-10-01T08:21:04.336Z,12.57
2022-10-01T08:23:34.212Z,8.87
2022-10-01T08:26:07.086Z,6.57
2022-10-01T08:28:35.683Z,7.95
2022-10-01T08:31:07.780Z,6.38
2022-10-01T08:33:38.133Z,5.85
2022-10-01T08:36:09.831Z,5.40
2022-10-01T08:38:40.294Z,8.32
2022-10-01T08:41:39.821Z,11.73
2022-10-01T08:44:20.030Z,7.90
2022-10-01T08:46:50.902Z,9.30
2022-10-01T08:49:34.947Z,8.65
2022-10-01T08:52:13.436Z,7.97
2022-10-01T08:55:04.924Z,7.07
2022-10-01T08:57:56.969Z,9.68
2022-10-01T09:00:25.644Z,9.00
2022-10-01T09:03:01.208Z,9.93
2022-10-01T09:06:04.089Z,9.70
2022-10-01T09:08:57.272Z,8.55
2022-10-01T09:11:43.783Z,8.95
2022-10-01T09:14:15.085Z,9.93
2022-10-01T09:17:20.589Z,9.50
2022-10-01T09:20:13.355Z,7.07
2022-10-01T09:22:49.986Z,10.00
2022-10-01T09:25:24.687Z,10.70
2022-10-01T09:28:33.755Z,12.88
2022-10-01T09:31:20.346Z,8.18
2022-10-01T09:33:58.223Z,10.50
2022-10-01T09:36:30.167Z,11.13
2022-10-01T09:39:40.166Z,9.38
2022-10-01T09:42:08.793Z,10.53
2022-10-01T09:44:37.746Z,6.75
2022-10-01T09:47:22.841Z,6.57
2022-10-01T09:49:52.249Z,6.68
2022-10-01T09:52:34.786Z,4.88
2022-10-01T09:55:03.113Z,6.93
2022-10-01T09:57:37.365Z,8.23
2022-10-01T10:00:18.336Z,9.65
2022-10-01T10:02:49.976Z,6.72
2022-10-01T10:05:20.101Z,8.88
2022-10-01T10:08:11.074Z,7.10
2022-10-01T10:11:00.708Z,8.95
2022-10-01T10:13:39.205Z,6.43
2022-10-01T10:16:31.113Z,6.43
2022-10-01T10:19:14.598Z,2.95
2022-10-01T10:22:09.045Z,3.95
2022-10-01T10:24:37.767Z,9.40
2022-10-01T10:27:20.961Z,5.15
2022-10-01T10:29:49.465Z,4.05
2022-10-01T10:32:26.772Z,4.57
2022-10-01T10:35:10.043Z,6.20
2022-10-01T10:37:50.021Z,6.68
2022-10-01T10:40:28.502Z,3.65
2022-10-01T10:42:59.177Z,5.30
2022-10-01T10:45:39.986Z,3.92
2022-10-01T10:48:17.064Z,11.02
2022-10-01T10:50:47.076Z,5.32
2022-10-01T10:53:27.551Z,4.65
2022-10-01T10:56:05.498Z,4.72
2022-10-01T10:58:40.326Z,5.43
2022-10-01T11:01:13.738Z,3.28
2022-10-01T11:03:47.458Z,1.67
2022-10-01T11:06:18.694Z,3.60
2022-10-01T11:08:57.423Z,2.72
2022-10-01T11:11:57.564Z,1.45
2022-10-01T11:14:46.594Z,1.50
2022-10-01T11:17:18.710Z,5.10
2022-10-01T11:20:20.714Z,4.10
2022-10-01T11:23:07.054Z,4.35
2022-10-01T11:26:10.790Z,3.17
2022-10-01T11:28:57.895Z,6.50
2022-10-01T11:31:35.598Z,4.90
2022-10-01T11:34:38.978Z,4.28
2022-10-01T11:37:39.139Z,4.03
2022-10-01T11:40:44.319Z,3.72
2022-10-01T11:43:26.250Z,5.18
2022-10-01T11:46:07.941Z,4.90
2022-10-01T11:48:44.786Z,4.43
2022-10-01T11:51:20.045Z,4.93
2022-10-01T11:54:12.302Z,5.88
2022-10-01T11:57:08.818Z,4.60
2022-10-01T12:00:05.289Z,5.45
2022-10-01T12:02:40.794Z,4.68
2022-10-01T12:05:17.243Z,4.43
2022-10-01T12:07:45.633Z,6.93
2022-10-01T12:10:50.881Z,5.35
2022-10-01T12:13:30.456Z,2.85
2022-10-01T12:16:40.713Z,4.00
2022-10-01T12:19:17.465Z,3.80
2022-10-01T12:22:00.458Z,3.10
2022-10-01T12:24:36.116Z,8.18
2022-10-01T12:27:33.526Z,7.03
2022-10-01T12:30:13.540Z,4.88
2022-10-01T12:32:50.296Z,4.65
2022-10-01T12:35:52.761Z,6.43
2022-10-01T12:38:33.085Z,7.28
2022-10-01T12:41:20.450Z,6.55
2022-10-01T12:43:51.681Z,8.90
2022-10-01T12:46:41.606Z,7.30
2022-10-01T12:49:22.497Z,7.90
2022-10-01T12:52:42.545Z,8.05
2022-10-01T12:55:51.682Z,10.60
2022-10-01T12:58:29.743Z,7.78
2022-10-01T13:01:50.683Z,8.60
2022-10-01T13:04:50.895Z,7.88
2022-10-01T13:07:57.102Z,7.18
2022-10-01T13:11:20.561Z,6.63
2022-10-01T13:13:52.865Z,8.90
2022-10-01T13:16:56.163Z,6.28
2022-10-01T13:19:48.353Z,6.75
2022-10-01T13:23:10.121Z,8.75
2022-10-01T13:25:54.751Z,10.07
2022-10-01T13:28:30.212Z,7.90
2022-10-01T13:31:01.966Z,5.55
2022-10-01T13:33:33.199Z,11.48
2022-10-01T13:36:13.727Z,10.70
2022-10-01T13:38:44.063Z,9.95
2022-10-01T13:41:15.950Z,7.55
2022-10-01T13:43:58.101Z,11.40
2022-10-01T13:46:31.287Z,10.70
2022-10-01T13:49:07.499Z,6.65
2022-10-01T13:51:38.172Z,8.75
2022-10-01T13:56:38.095Z,7.95
2022-10-01T13:59:30.406Z,9.68
2022-10-01T14:01:59.075Z,7.80
2022-10-01T14:04:40.477Z,8.05
2022-10-01T14:07:25.247Z,7.65
2022-10-01T14:09:58.233Z,7.60
2022-10-01T14:12:54.260Z,8.82
2022-10-01T14:15:44.223Z,6.07
2022-10-01T14:18:17.472Z,5.15
2022-10-01T14:21:18.348Z,8.10
2022-10-01T14:23:46.525Z,4.97
2022-10-01T14:26:46.838Z,3.63
2022-10-01T14:29:39.678Z,4.47
2022-10-01T14:32:36.398Z,9.75
2022-10-01T14:35:28.448Z,3.83
2022-10-01T14:38:00.434Z,5.15
2022-10-01T14:40:50.138Z,7.07
2022-10-01T14:43:21.544Z,5.90
2022-10-01T14:45:59.528Z,8.75
2022-10-01T14:48:33.721Z,5.97
2022-10-01T14:51:04.968Z,7.97
2022-10-01T14:53:41.988Z,3.97
2022-10-01T14:56:14.793Z,6.03
2022-10-01T14:58:52.734Z,4.10
2022-10-01T15:01:23.167Z,6.80
2022-10-01T15:03:52.746Z,4.18
2022-10-01T15:06:30.318Z,6.70
2022-10-01T15:09:19.002Z,7.43
2022-10-01T15:11:51.722Z,5.72
2022-10-01T15:14:24.759Z,7.22
2022-10-01T15:16:54.221Z,7.45
2022-10-01T15:19:23.630Z,11.13
2022-10-01T15:21:57.429Z,9.70
2022-10-01T15:24:43.090Z,10.82
2022-10-01T15:27:14.303Z,7.20
2022-10-01T15:29:43.961Z,11.52
2022-10-01T15:32:16.585Z,6.50
2022-10-01T15:34:50.073Z,7.60
2022-10-01T15:37:30.716Z,7.38
2022-10-01T15:40:00.832Z,14.75
2022-10-01T15:42:32.847Z,8.88
2022-10-01T15:45:07.128Z,7.93
2022-10-01T15:47:37.464Z,6.82
2022-10-01T15:50:09.062Z,7.97
2022-10-01T15:52:49.695Z,16.27
2022-10-01T15:55:30.539Z,8.23
2022-10-01T16:00:47.587Z,10.75
2022-10-01T16:03:30.053Z,4.40
2022-10-01T16:06:02.402Z,8.20
2022-10-01T16:08:34.718Z,12.32
2022-10-01T16:11:31.669Z,8.15
2022-10-01T16:14:21.649Z,7.60
2022-10-01T16:16:50.846Z,9.10
2022-10-01T16:19:30.856Z,11.07
2022-10-01T16:22:17.522Z,10.20
2022-10-01T16:25:10.103Z,10.98
2022-10-01T16:27:50.433Z,19.80
2022-10-01T16:30:21.916Z,14.77
2022-10-01T16:32:50.429Z,20.95
2022-10-01T16:35:30.066Z,14.93
2022-10-01T16:37:59.022Z,13.70
2022-10-01T16:40:32.493Z,13.02
2022-10-01T16:43:01.076Z,9.52
2022-10-01T16:45:38.854Z,20.60
2022-10-01T16:48:19.680Z,12.35
2022-10-01T16:53:18.321Z,14.18
2022-10-01T16:55:47.012Z,13.90
2022-10-01T16:58:15.790Z,17.10
2022-10-01T17:00:44.269Z,19.70
2022-10-01T17:03:17.758Z,13.65
2022-10-01T17:05:46.205Z,17.80
2022-10-01T17:08:15.879Z,16.13
2022-10-01T17:10:44.349Z,19.30
2022-10-01T17:13:15.823Z,11.63
2022-10-01T17:15:44.291Z,20.35
2022-10-01T17:18:13.807Z,13.93
2022-10-01T17:20:42.188Z,10.32
2022-10-01T17:23:13.283Z,16.60
2022-10-01T17:25:42.554Z,11.65
2022-10-01T17:28:14.854Z,14.80
2022-10-01T17:30:46.555Z,16.15
2022-10-01T17:33:19.576Z,15.57
2022-10-01T17:35:51.928Z,21.23
2022-10-01T17:38:21.553Z,15.75
2022-10-01T17:40:56.327Z,17.50
2022-10-01T17:43:25.185Z,16.02
2022-10-01T17:46:00.100Z,21.10
2022-10-01T17:48:29.132Z,17.58
2022-10-01T17:51:04.140Z,15.50
2022-10-01T17:53:39.641Z,10.40
2022-10-01T17:56:14.974Z,15.07
2022-10-01T17:58:45.570Z,16.10
2022-10-01T18:01:20.384Z,14.95
2022-10-01T18:03:55.401Z,18.55
2022-10-01T18:06:24.770Z,11.82
2022-10-01T18:08:55.961Z,21.80
2022-10-01T18:11:27.539Z,14.98
2022-10-01T18:16:25.046Z,10.05
2022-10-01T18:21:48.164Z,9.32
2022-10-01T18:24:17.190Z,15.18
2022-10-01T18:26:46.836Z,19.75
2022-10-01T18:29:23.729Z,14.13
2022-10-01T18:32:06.829Z,13.30
2022-10-01T18:34:39.477Z,17.38
2022-10-01T18:37:40.367Z,16.13
2022-10-01T18:40:17.086Z,16.50
2022-10-01T18:42:57.940Z,28.13
2022-10-01T18:45:55.455Z,19.30
2022-10-01T18:48:32.990Z,14.15
2022-10-01T18:51:08.568Z,16.25
2022-10-01T18:54:02.394Z,13.82
2022-10-01T18:56:40.721Z,16.15
2022-10-01T18:59:46.980Z,14.40
2022-10-01T19:02:21.555Z,11.77
2022-10-01T19:05:26.846Z,15.55
2022-10-01T19:08:20.973Z,17.05
2022-10-01T19:11:13.453Z,15.55
2022-10-01T19:14:24.077Z,16.27
2022-10-01T19:17:35.642Z,16.75
2022-10-01T19:20:25.853Z,16.73
2022-10-01T19:23:11.456Z,15.93
2022-10-01T19:25:54.836Z,17.50
2022-10-01T19:28:44.511Z,15.50
2022-10-01T19:31:33.124Z,15.32
2022-10-01T19:34:08.951Z,14.93
2022-10-01T19:36:41.571Z,19.88
2022-10-01T19:39:19.983Z,17.35
2022-10-01T19:41:55.556Z,14.88
2022-10-01T19:44:54.307Z,18.50
2022-10-01T19:47:34.681Z,15.75
2022-10-01T19:50:17.932Z,14.27
2022-10-01T19:52:51.490Z,13.30
2022-10-01T19:55:23.166Z,20.45
2022-10-01T19:57:52.803Z,8.60
2022-10-01T20:00:24.062Z,12.43
2022-10-01T20:03:18.012Z,11.23
2022-10-01T20:05:53.172Z,10.23
2022-10-01T20:08:34.169Z,9.88
2022-10-01T20:14:42.354Z,10.18
2022-10-01T20:17:22.733Z,18.42
2022-10-01T20:20:02.223Z,11.90
2022-10-01T20:22:40.792Z,14.18
2022-10-01T20:25:14.632Z,13.27
2022-10-01T20:28:20.649Z,15.25
2022-10-01T20:30:54.369Z,17.42
2022-10-01T20:33:51.737Z,17.15
2022-10-01T20:36:27.918Z,18.67
2022-10-01T20:39:06.292Z,11.07
2022-10-01T20:41:44.671Z,13.13
2022-10-01T20:44:26.201Z,17.70
2022-10-01T20:47:31.558Z,20.73
2022-10-01T20:50:09.363Z,21.08
2022-10-01T20:52:41.412Z,23.88
2022-10-01T20:55:28.846Z,16.50
2022-10-01T20:58:03.525Z,11.48
2022-10-01T21:00:32.886Z,16.80
2022-10-01T21:03:11.574Z,14.43
2022-10-01T21:05:48.274Z,15.15
2022-10-01T21:08:42.166Z,18.75
2022-10-01T21:11:40.366Z,24.17
2022-10-01T21:14:30.185Z,11.55
2022-10-01T21:17:22.745Z,15.85
2022-10-01T21:20:03.638Z,21.95
2022-10-01T21:25:06.381Z,13.73
2022-10-01T21:27:47.701Z,18.02
2022-10-01T21:30:21.755Z,20.55
2022-10-01T21:33:12.011Z,13.93
2022-10-01T21:35:52.852Z,12.88
2022-10-01T21:41:08.677Z,13.43
2022-10-01T21:44:10.876Z,13.50
2022-10-01T21:46:55.471Z,19.05
2022-10-01T21:49:36.375Z,9.85
2022-10-01T21:52:19.848Z,15.15
2022-10-01T21:54:51.475Z,14.02
2022-10-01T21:57:39.657Z,10.98
2022-10-01T22:00:21.719Z,16.60
2022-10-01T22:03:08.987Z,14.60
2022-10-01T22:05:40.100Z,13.10
2022-10-01T22:08:45.404Z,18.13
2022-10-01T22:11:18.562Z,8.30
2022-10-01T22:13:57.533Z,9.68
2022-10-01T22:16:40.578Z,7.18
2022-10-01T22:19:19.617Z,7.05
2022-10-01T22:22:07.716Z,3.53
2022-10-01T22:24:46.693Z,4.43
2022-10-01T22:27:45.696Z,5.75
2022-10-01T22:30:20.534Z,2.08
2022-10-01T22:33:20.179Z,3.53
2022-10-01T22:36:11.082Z,2.00
2022-10-01T22:39:07.815Z,2.53
2022-10-01T22:41:41.354Z,2.25
2022-10-01T22:44:21.262Z,4.78
2022-10-01T22:47:00.803Z,4.23
2022-10-01T22:50:34.251Z,1.88
2022-10-01T22:53:15.223Z,3.97
2022-10-01T22:55:59.595Z,5.85
2022-10-01T22:58:33.300Z,7.32
2022-10-01T23:01:15.148Z,4.55
2022-10-01T23:03:53.671Z,4.85
2022-10-01T23:06:36.057Z,3.47
2022-10-01T23:09:20.622Z,4.45
2022-10-01T23:12:15.817Z,3.65
2022-10-01T23:15:03.089Z,3.72
2022-10-01T23:17:39.681Z,6.60
2022-10-01T23:20:33.220Z,3.60
2022-10-01T23:23:32.619Z,6.50
2022-10-01T23:26:27.883Z,6.28
2022-10-01T23:29:22.861Z,6.15
2022-10-01T23:32:00.447Z,7.10
2022-10-01T23:34:37.119Z,6.32
2022-10-01T23:37:21.648Z,5.70
2022-10-01T23:40:03.639Z,5.43
2022-10-01T23:42:42.508Z,8.52
2022-10-01T23:46:01.810Z,7.90
2022-10-01T23:48:30.185Z,5.38
2022-10-01T23:51:17.480Z,4.05
2022-10-01T23:54:21.151Z,7.47
2022-10-01T23:56:57.309Z,7.85
2022-10-01T23:59:28.824Z,12.75
